www.wetter-witzhave.de
Wetterdaten: aktuell Sonntag, 01.08.2021 19:33
Datum Zeit Temp. A. Feuchte A. Luftdruck Regen Wind Richtung Richtung Taupunkt Windchill Windben
01.08.2021 19:33 16,2 C 86 % 1015,0 hPa 0,0 l/m 0,0 km/h (0 Bft) SO 135 13,9 C 16,2 C 0,0 km/h (0 Bft)
01.08.2021 19:28 16,3 C 87 % 1015,1 hPa 0,0 l/m 0,0 km/h (0 Bft) S 180 14,1 C 16,3 C 0,0 km/h (0 Bft)
01.08.2021 19:23 16,4 C 87 % 1014,9 hPa 0,0 l/m 0,0 km/h (0 Bft) SO 135 14,2 C 16,4 C 0,0 km/h (0 Bft)
01.08.2021 19:18 16,4 C 87 % 1014,9 hPa 0,0 l/m 0,0 km/h (0 Bft) - - 0 14,2 C 16,4 C 0,0 km/h (0 Bft)
01.08.2021 19:13 16,5 C 88 % 1014,9 hPa 0,0 l/m 0,0 km/h (0 Bft) NW 315 14,5 C 16,5 C 0,0 km/h (0 Bft)
01.08.2021 19:08 16,6 C 90 % 1014,7 hPa 0,0 l/m 0,0 km/h (0 Bft) S 180 15,0 C 16,6 C 0,0 km/h (0 Bft)
01.08.2021 19:03 16,7 C 91 % 1014,9 hPa 0,0 l/m 0,0 km/h (0 Bft) - - 0 15,2 C 16,7 C 0,0 km/h (0 Bft)
01.08.2021 18:58 16,7 C 91 % 1014,9 hPa 0,0 l/m 0,0 km/h (0 Bft) W 270 15,2 C 16,7 C 0,0 km/h (0 Bft)
01.08.2021 18:53 16,7 C 91 % 1014,9 hPa 0,0 l/m 0,0 km/h (0 Bft) W 270 15,2 C 16,7 C 0,0 km/h (0 Bft)
01.08.2021 18:48 16,8 C 91 % 1014,8 hPa 0,0 l/m 0,0 km/h (0 Bft) W 270 15,3 C 16,8 C 0,0 km/h (0 Bft)
01.08.2021 18:43 16,8 C 91 % 1014,9 hPa 0,0 l/m 0,0 km/h (0 Bft) - - 0 15,3 C 16,8 C 0,0 km/h (0 Bft)
01.08.2021 18:38 16,8 C 91 % 1014,8 hPa 0,0 l/m 0,0 km/h (0 Bft) S 180 15,3 C 16,8 C 0,0 km/h (0 Bft)
01.08.2021 18:33 16,7 C 91 % 1014,8 hPa 0,0 l/m 0,0 km/h (0 Bft) SW 225 15,2 C 16,7 C 0,0 km/h (0 Bft)
01.08.2021 18:28 16,7 C 91 % 1014,8 hPa 0,0 l/m 0,0 km/h (0 Bft) SW 225 15,2 C 16,7 C 0,0 km/h (0 Bft)
01.08.2021 18:23 16,7 C 92 % 1015,1 hPa 0,0 l/m 0,0 km/h (0 Bft) NW 315 15,4 C 16,7 C 0,0 km/h (0 Bft)
01.08.2021 18:18 16,7 C 92 % 1015,0 hPa 0,0 l/m 0,0 km/h (0 Bft) W 270 15,4 C 16,7 C 0,0 km/h (0 Bft)
01.08.2021 18:13 16,7 C 93 % 1014,8 hPa 0,0 l/m 0,0 km/h (0 Bft) SW 225 15,6 C 16,7 C 0,0 km/h (0 Bft)
01.08.2021 18:08 16,7 C 92 % 1014,7 hPa 0,0 l/m 0,0 km/h (0 Bft) NO 45 15,4 C 16,7 C 0,0 km/h (0 Bft)
01.08.2021 18:03 16,7 C 92 % 1014,9 hPa 0,0 l/m 0,0 km/h (0 Bft) S 180 15,4 C 16,7 C 0,0 km/h (0 Bft)
01.08.2021 17:58 16,8 C 93 % 1014,9 hPa 0,0 l/m 0,0 km/h (0 Bft) NW 315 15,7 C 16,8 C 0,0 km/h (0 Bft)
01.08.2021 17:53 16,8 C 93 % 1014,8 hPa 0,0 l/m 0,0 km/h (0 Bft) S 180 15,7 C 16,8 C 0,0 km/h (0 Bft)
01.08.2021 17:48 16,8 C 93 % 1015,1 hPa 0,0 l/m 0,0 km/h (0 Bft) SO 135 15,7 C 16,8 C 0,0 km/h (0 Bft)
01.08.2021 17:43 16,8 C 93 % 1014,8 hPa 0,0 l/m 0,0 km/h (0 Bft) SW 225 15,7 C 16,8 C 0,0 km/h (0 Bft)
01.08.2021 17:38 16,8 C 93 % 1001,8 hPa 0,0 l/m 0,0 km/h (0 Bft) SW 225 15,7 C 16,8 C 0,0 km/h (0 Bft)
01.08.2021 17:33 16,9 C 94 % 1014,8 hPa 0,0 l/m 0,0 km/h (0 Bft) S 180 15,9 C 16,9 C 0,0 km/h (0 Bft)
01.08.2021 17:28 16,9 C 94 % 1014,9 hPa 0,0 l/m 0,0 km/h (0 Bft) SW 225 15,9 C 16,9 C 0,0 km/h (0 Bft)
01.08.2021 17:23 16,9 C 95 % 1015,1 hPa 0,0 l/m 0,0 km/h (0 Bft) - - 0 16,1 C 16,9 C 0,0 km/h (0 Bft)
01.08.2021 17:18 17,0 C 95 % 1015,1 hPa 0,0 l/m 0,0 km/h (0 Bft) NW 315 16,2 C 17,0 C 0,0 km/h (0 Bft)
01.08.2021 17:13 17,1 C 96 % 1014,9 hPa 0,0 l/m 0,0 km/h (0 Bft) S 180 16,5 C 17,1 C 0,0 km/h (0 Bft)
01.08.2021 17:08 17,0 C 96 % 1015,1 hPa 0,0 l/m 0,0 km/h (0 Bft) SO 135 16,4 C 17,0 C 0,0 km/h (0 Bft)
01.08.2021 17:03 17,0 C 96 % 1015,1 hPa 0,0 l/m 0,0 km/h (0 Bft) NO 45 16,4 C 17,0 C 0,0 km/h (0 Bft)
01.08.2021 16:58 17,0 C 96 % 1015,0 hPa 0,0 l/m 0,0 km/h (0 Bft) NW 315 16,4 C 17,0 C 0,0 km/h (0 Bft)
01.08.2021 16:53 17,0 C 96 % 1015,1 hPa 0,0 l/m 0,0 km/h (0 Bft) S 180 16,4 C 17,0 C 0,0 km/h (0 Bft)
01.08.2021 16:48 17,0 C 96 % 1015,0 hPa 0,0 l/m 0,0 km/h (0 Bft) SW 225 16,4 C 17,0 C 0,0 km/h (0 Bft)
01.08.2021 16:43 17,0 C 96 % 1015,1 hPa 0,0 l/m 0,0 km/h (0 Bft) SO 135 16,4 C 17,0 C 0,0 km/h (0 Bft)
01.08.2021 16:38 17,0 C 96 % 1015,1 hPa 0,0 l/m 0,0 km/h (0 Bft) NW 315 16,4 C 17,0 C 0,0 km/h (0 Bft)
01.08.2021 16:33 16,9 C 96 % 1015,0 hPa 0,0 l/m 0,0 km/h (0 Bft) W 270 16,3 C 16,9 C 0,0 km/h (0 Bft)
01.08.2021 16:28 16,9 C 96 % 1014,9 hPa 0,0 l/m 0,0 km/h (0 Bft) S-SW 202 16,3 C 16,9 C 0,0 km/h (0 Bft)
01.08.2021 16:23 16,9 C 96 % 1015,1 hPa 0,0 l/m 0,0 km/h (0 Bft) SO 135 16,3 C 16,9 C 0,0 km/h (0 Bft)
01.08.2021 16:18 16,9 C 96 % 1015,1 hPa 0,0 l/m 0,0 km/h (0 Bft) W 270 16,3 C 16,9 C 0,0 km/h (0 Bft)
01.08.2021 16:13 16,9 C 95 % 1015,1 hPa 0,0 l/m 0,0 km/h (0 Bft) W 270 16,1 C 16,9 C 0,0 km/h (0 Bft)
01.08.2021 16:08 16,8 C 94 % 1015,2 hPa 0,0 l/m 0,0 km/h (0 Bft) S 180 15,8 C 16,8 C 0,0 km/h (0 Bft)
01.08.2021 16:03 16,8 C 94 % 1015,3 hPa 0,0 l/m 0,0 km/h (0 Bft) S 180 15,8 C 16,8 C 0,0 km/h (0 Bft)
01.08.2021 15:58 16,6 C 94 % 1015,3 hPa 0,0 l/m 0,0 km/h (0 Bft) S 180 15,6 C 16,6 C 0,0 km/h (0 Bft)
01.08.2021 15:53 16,5 C 93 % 1015,3 hPa 0,0 l/m 0,0 km/h (0 Bft) SW 225 15,4 C 16,5 C 0,0 km/h (0 Bft)
01.08.2021 15:48 16,5 C 93 % 1015,4 hPa 0,0 l/m 0,0 km/h (0 Bft) NW 315 15,4 C 16,5 C 0,0 km/h (0 Bft)
01.08.2021 15:43 16,4 C 92 % 1015,3 hPa 0,0 l/m 0,0 km/h (0 Bft) S 180 15,1 C 16,4 C 0,0 km/h (0 Bft)
01.08.2021 15:38 16,3 C 91 % 1015,3 hPa 0,3 l/m 0,0 km/h (0 Bft) SW 225 14,8 C 16,3 C 0,0 km/h (0 Bft)
01.08.2021 15:33 16,2 C 90 % 1015,3 hPa 0,3 l/m 0,0 km/h (0 Bft) NW 315 14,6 C 16,2 C 0,0 km/h (0 Bft)
01.08.2021 15:28 16,2 C 89 % 1015,4 hPa 0,0 l/m 0,0 km/h (0 Bft) NW 315 14,4 C 16,2 C 0,0 km/h (0 Bft)
01.08.2021 15:23 16,2 C 88 % 1015,3 hPa 0,0 l/m 0,0 km/h (0 Bft) NW 315 14,2 C 16,2 C 0,0 km/h (0 Bft)
01.08.2021 15:18 16,3 C 88 % 1015,1 hPa 0,6 l/m 0,0 km/h (0 Bft) NW 315 14,3 C 16,3 C 0,0 km/h (0 Bft)
01.08.2021 15:13 16,4 C 87 % 1015,3 hPa 0,3 l/m 0,0 km/h (0 Bft) S 180 14,2 C 16,4 C 0,0 km/h (0 Bft)
01.08.2021 15:08 16,5 C 86 % 1015,1 hPa 0,6 l/m 0,0 km/h (0 Bft) S 180 14,1 C 16,5 C 0,0 km/h (0 Bft)
01.08.2021 15:03 16,6 C 85 % 1015,3 hPa 0,0 l/m 0,0 km/h (0 Bft) S 180 14,1 C 16,6 C 0,0 km/h (0 Bft)
01.08.2021 14:58 16,7 C 84 % 1014,9 hPa 0,3 l/m 0,0 km/h (0 Bft) S 180 14,0 C 16,7 C 0,0 km/h (0 Bft)
01.08.2021 14:53 16,9 C 84 % 1015,1 hPa 0,9 l/m 0,0 km/h (0 Bft) SO 135 14,2 C 16,9 C 0,0 km/h (0 Bft)
01.08.2021 14:48 17,0 C 82 % 1014,8 hPa 0,3 l/m 0,0 km/h (0 Bft) NW 315 13,9 C 17,0 C 0,0 km/h (0 Bft)
01.08.2021 14:43 17,5 C 78 % 1015,0 hPa 0,0 l/m 0,0 km/h (0 Bft) O 90 13,6 C 17,5 C 0,0 km/h (0 Bft)
01.08.2021 14:38 17,5 C 77 % 1014,7 hPa 0,6 l/m 0,0 km/h (0 Bft) NW 315 13,4 C 17,5 C 0,0 km/h (0 Bft)
01.08.2021 14:33 18,0 C 76 % 1014,2 hPa 0,6 l/m 0,0 km/h (0 Bft) - - 0 13,7 C 18,0 C 0,0 km/h (0 Bft)
01.08.2021 14:28 18,5 C 74 % 1014,3 hPa 1,2 l/m 0,0 km/h (0 Bft) - - 0 13,8 C 18,5 C 0,0 km/h (0 Bft)
01.08.2021 14:23 19,1 C 73 % 1013,9 hPa 0,6 l/m 0,0 km/h (0 Bft) - - 0 14,1 C 19,1 C 0,0 km/h (0 Bft)
01.08.2021 14:18 19,9 C 72 % 1013,9 hPa 0,0 l/m 0,0 km/h (0 Bft) N-NO 22 14,7 C 19,9 C 0,0 km/h (0 Bft)
01.08.2021 14:13 20,6 C 70 % 1013,9 hPa 0,3 l/m 0,0 km/h (0 Bft) SO 135 14,9 C 20,6 C 0,0 km/h (0 Bft)
01.08.2021 14:08 21,8 C 66 % 1013,5 hPa 0,0 l/m 0,0 km/h (0 Bft) NW 315 15,2 C 21,8 C 0,0 km/h (0 Bft)
01.08.2021 14:03 21,9 C 65 % 1013,3 hPa 0,0 l/m 0,0 km/h (0 Bft) - - 0 15,0 C 21,9 C 0,0 km/h (0 Bft)
01.08.2021 13:58 22,7 C 62 % 1012,9 hPa 0,0 l/m 0,0 km/h (0 Bft) - - 0 15,0 C 22,7 C 0,0 km/h (0 Bft)
01.08.2021 13:53 23,1 C 62 % 1012,6 hPa 0,0 l/m 0,0 km/h (0 Bft) SO 135 15,4 C 23,1 C 0,0 km/h (0 Bft)
01.08.2021 13:48 22,9 C 63 % 1012,7 hPa 0,0 l/m 0,0 km/h (0 Bft) S 180 15,5 C 22,9 C 0,0 km/h (0 Bft)
01.08.2021 13:43 22,4 C 66 % 1012,8 hPa 0,0 l/m 0,0 km/h (0 Bft) W 270 15,7 C 22,4 C 0,0 km/h (0 Bft)
01.08.2021 13:38 22,1 C 66 % 1013,1 hPa 0,0 l/m 0,0 km/h (0 Bft) SW 225 15,4 C 22,1 C 0,0 km/h (0 Bft)
01.08.2021 13:33 21,3 C 68 % 1013,4 hPa 0,0 l/m 0,0 km/h (0 Bft) W 270 15,1 C 21,3 C 0,0 km/h (0 Bft)
01.08.2021 13:28 21,0 C 66 % 1013,8 hPa 0,0 l/m 0,0 km/h (0 Bft) S 180 14,4 C 21,0 C 0,0 km/h (0 Bft)
01.08.2021 13:23 21,0 C 66 % 1013,7 hPa 0,0 l/m 0,0 km/h (0 Bft) SW 225 14,4 C 21,0 C 0,0 km/h (0 Bft)
01.08.2021 13:18 21,1 C 66 % 1013,9 hPa 0,0 l/m 0,0 km/h (0 Bft) SW 225 14,5 C 21,1 C 0,0 km/h (0 Bft)
01.08.2021 13:13 21,3 C 66 % 1014,0 hPa 0,0 l/m 0,0 km/h (0 Bft) SW 225 14,7 C 21,3 C 0,0 km/h (0 Bft)
01.08.2021 13:08 21,5 C 68 % 1013,8 hPa 0,0 l/m 0,0 km/h (0 Bft) SW 225 15,3 C 21,5 C 0,0 km/h (0 Bft)
01.08.2021 13:03 21,4 C 67 % 1014,0 hPa 0,0 l/m 0,0 km/h (0 Bft) NW 315 15,0 C 21,4 C 0,0 km/h (0 Bft)
01.08.2021 12:58 21,5 C 66 % 1013,9 hPa 0,0 l/m 0,0 km/h (0 Bft) W 270 14,9 C 21,5 C 0,0 km/h (0 Bft)
01.08.2021 12:53 21,2 C 69 % 1014,1 hPa 0,0 l/m 0,0 km/h (0 Bft) W 270 15,3 C 21,2 C 0,0 km/h (0 Bft)
01.08.2021 12:48 20,8 C 70 % 1014,1 hPa 0,0 l/m 0,0 km/h (0 Bft) SW 225 15,1 C 20,8 C 0,0 km/h (0 Bft)
01.08.2021 12:43 20,8 C 69 % 1014,2 hPa 0,0 l/m 0,0 km/h (0 Bft) S 180 14,9 C 20,8 C 0,0 km/h (0 Bft)
01.08.2021 12:38 21,1 C 67 % 1014,2 hPa 0,0 l/m 0,0 km/h (0 Bft) W 270 14,7 C 21,1 C 0,0 km/h (0 Bft)
01.08.2021 12:33 21,3 C 69 % 1014,1 hPa 0,0 l/m 0,0 km/h (0 Bft) SW 225 15,4 C 21,3 C 0,0 km/h (0 Bft)
01.08.2021 12:28 21,4 C 71 % 1014,2 hPa 0,0 l/m 0,0 km/h (0 Bft) SW 225 15,9 C 21,4 C 0,0 km/h (0 Bft)
01.08.2021 12:23 21,1 C 73 % 1014,4 hPa 0,0 l/m 0,0 km/h (0 Bft) SO 135 16,1 C 21,1 C 0,0 km/h (0 Bft)
01.08.2021 12:18 20,4 C 76 % 1014,6 hPa 0,0 l/m 0,0 km/h (0 Bft) NW 315 16,0 C 20,4 C 0,0 km/h (0 Bft)
01.08.2021 12:13 19,7 C 78 % 1014,8 hPa 0,0 l/m 0,0 km/h (0 Bft) SW 225 15,8 C 19,7 C 0,0 km/h (0 Bft)
01.08.2021 12:08 18,8 C 79 % 1014,9 hPa 0,0 l/m 0,0 km/h (0 Bft) S 180 15,1 C 18,8 C 0,0 km/h (0 Bft)
01.08.2021 12:03 18,7 C 78 % 1014,8 hPa 0,0 l/m 0,0 km/h (0 Bft) S 180 14,8 C 18,7 C 0,0 km/h (0 Bft)
01.08.2021 11:58 18,5 C 77 % 1015,1 hPa 0,0 l/m 0,0 km/h (0 Bft) SW 225 14,4 C 18,5 C 0,0 km/h (0 Bft)
01.08.2021 11:53 18,4 C 77 % 1014,8 hPa 0,0 l/m 0,0 km/h (0 Bft) S 180 14,3 C 18,4 C 0,0 km/h (0 Bft)
01.08.2021 11:48 18,4 C 77 % 1015,1 hPa 0,0 l/m 0,0 km/h (0 Bft) SW 225 14,3 C 18,4 C 0,0 km/h (0 Bft)
01.08.2021 11:43 18,4 C 78 % 1015,3 hPa 0,0 l/m 0,0 km/h (0 Bft) SW 225 14,5 C 18,4 C 0,0 km/h (0 Bft)
01.08.2021 11:38 18,3 C 78 % 1015,1 hPa 0,0 l/m 0,0 km/h (0 Bft) W 270 14,4 C 18,3 C 0,0 km/h (0 Bft)
01.08.2021 11:33 18,2 C 78 % 1015,2 hPa 0,0 l/m 0,0 km/h (0 Bft) W 270 14,3 C 18,2 C 0,0 km/h (0 Bft)
01.08.2021 11:28 18,3 C 78 % 1015,2 hPa 0,0 l/m 0,0 km/h (0 Bft) W 270 14,4 C 18,3 C 0,0 km/h (0 Bft)
01.08.2021 11:23 18,4 C 78 % 1015,2 hPa 0,0 l/m 0,0 km/h (0 Bft) SW 225 14,5 C 18,4 C 0,0 km/h (0 Bft)
01.08.2021 11:18 18,6 C 78 % 1015,2 hPa 0,0 l/m 0,0 km/h (0 Bft) SW 225 14,7 C 18,6 C 0,0 km/h (0 Bft)
01.08.2021 11:13 18,8 C 80 % 1015,1 hPa 0,0 l/m 0,0 km/h (0 Bft) S 180 15,3 C 18,8 C 0,0 km/h (0 Bft)
01.08.2021 11:08 18,8 C 81 % 1015,0 hPa 0,0 l/m 0,0 km/h (0 Bft) W 270 15,5 C 18,8 C 0,0 km/h (0 Bft)
01.08.2021 11:03 18,8 C 83 % 1015,1 hPa 0,0 l/m 0,0 km/h (0 Bft) SW 225 15,8 C 18,8 C 0,0 km/h (0 Bft)
01.08.2021 10:58 18,5 C 85 % 1015,3 hPa 0,0 l/m 0,0 km/h (0 Bft) W 270 15,9 C 18,5 C 0,0 km/h (0 Bft)
01.08.2021 10:53 18,2 C 85 % 1015,1 hPa 0,0 l/m 0,0 km/h (0 Bft) SO 135 15,6 C 18,2 C 0,0 km/h (0 Bft)
01.08.2021 10:48 18,0 C 86 % 1015,2 hPa 0,0 l/m 0,0 km/h (0 Bft) NW 315 15,6 C 18,0 C 0,0 km/h (0 Bft)
01.08.2021 10:43 17,8 C 87 % 1015,3 hPa 0,0 l/m 0,0 km/h (0 Bft) W 270 15,6 C 17,8 C 0,0 km/h (0 Bft)
01.08.2021 10:38 17,6 C 87 % 1015,4 hPa 0,0 l/m 0,0 km/h (0 Bft) S 180 15,4 C 17,6 C 0,0 km/h (0 Bft)
01.08.2021 10:33 17,4 C 91 % 1015,2 hPa 0,0 l/m 0,0 km/h (0 Bft) SW 225 15,9 C 17,4 C 0,0 km/h (0 Bft)
01.08.2021 10:28 17,2 C 92 % 1015,3 hPa 0,0 l/m 0,0 km/h (0 Bft) S 180 15,9 C 17,2 C 0,0 km/h (0 Bft)
01.08.2021 10:23 17,0 C 92 % 1015,2 hPa 0,0 l/m 0,0 km/h (0 Bft) S 180 15,7 C 17,0 C 0,0 km/h (0 Bft)
01.08.2021 10:18 16,9 C 92 % 1015,2 hPa 0,0 l/m 0,0 km/h (0 Bft) SW 225 15,6 C 16,9 C 0,0 km/h (0 Bft)
01.08.2021 10:13 16,7 C 92 % 1015,6 hPa 0,0 l/m 0,0 km/h (0 Bft) W 270 15,4 C 16,7 C 0,0 km/h (0 Bft)
01.08.2021 10:08 16,6 C 94 % 1015,4 hPa 0,0 l/m 0,0 km/h (0 Bft) SW 225 15,6 C 16,6 C 0,0 km/h (0 Bft)
01.08.2021 10:03 16,6 C 94 % 1015,4 hPa 0,0 l/m 0,0 km/h (0 Bft) SW 225 15,6 C 16,6 C 0,0 km/h (0 Bft)
01.08.2021 09:58 16,5 C 95 % 1015,6 hPa 0,0 l/m 0,0 km/h (0 Bft) S 180 15,7 C 16,5 C 0,0 km/h (0 Bft)
01.08.2021 09:53 16,4 C 96 % 1015,4 hPa 0,0 l/m 0,0 km/h (0 Bft) S 180 15,8 C 16,4 C 0,0 km/h (0 Bft)
01.08.2021 09:48 16,2 C 96 % 1015,5 hPa 0,0 l/m 0,0 km/h (0 Bft) S-SO 158 15,6 C 16,2 C 0,0 km/h (0 Bft)
01.08.2021 09:43 16,1 C 97 % 1015,4 hPa 0,0 l/m 0,0 km/h (0 Bft) SW 225 15,6 C 16,1 C 0,0 km/h (0 Bft)
01.08.2021 09:38 16,0 C 97 % 1015,3 hPa 0,0 l/m 0,0 km/h (0 Bft) SW 225 15,5 C 16,0 C 0,0 km/h (0 Bft)
01.08.2021 09:33 15,9 C 98 % 1015,4 hPa 0,0 l/m 0,0 km/h (0 Bft) S 180 15,6 C 15,9 C 0,0 km/h (0 Bft)
01.08.2021 09:28 15,8 C 98 % 1015,7 hPa 0,0 l/m 0,0 km/h (0 Bft) S-SW 202 15,5 C 15,8 C 0,0 km/h (0 Bft)
01.08.2021 09:23 15,7 C 98 % 1015,5 hPa 0,0 l/m 0,0 km/h (0 Bft) SW 225 15,4 C 15,7 C 0,0 km/h (0 Bft)
01.08.2021 09:18 15,6 C 98 % 1015,7 hPa 0,0 l/m 0,0 km/h (0 Bft) SW 225 15,3 C 15,6 C 0,0 km/h (0 Bft)
01.08.2021 09:13 15,6 C 99 % 1015,5 hPa 0,0 l/m 0,0 km/h (0 Bft) S 180 15,4 C 15,6 C 0,0 km/h (0 Bft)
01.08.2021 09:08 15,6 C 99 % 1015,4 hPa 0,0 l/m 0,0 km/h (0 Bft) SW 225 15,4 C 15,6 C 0,0 km/h (0 Bft)
01.08.2021 09:03 15,6 C 100 % 1015,5 hPa 0,0 l/m 0,0 km/h (0 Bft) SO 135 15,6 C 15,6 C 0,0 km/h (0 Bft)
01.08.2021 08:58 15,6 C 100 % 1015,8 hPa 0,0 l/m 0,0 km/h (0 Bft) S-SW 202 15,6 C 15,6 C 0,0 km/h (0 Bft)
01.08.2021 08:53 15,6 C 100 % 1015,4 hPa 0,0 l/m 0,0 km/h (0 Bft) SW 225 15,6 C 15,6 C 0,0 km/h (0 Bft)
01.08.2021 08:48 15,6 C 100 % 1015,2 hPa 0,0 l/m 0,0 km/h (0 Bft) S-SW 202 15,6 C 15,6 C 0,0 km/h (0 Bft)
01.08.2021 08:43 15,6 C 100 % 1015,3 hPa 0,0 l/m 0,0 km/h (0 Bft) S 180 15,6 C 15,6 C 0,0 km/h (0 Bft)
01.08.2021 08:38 15,6 C 100 % 1015,4 hPa 0,0 l/m 0,0 km/h (0 Bft) SW 225 15,6 C 15,6 C 0,0 km/h (0 Bft)
01.08.2021 08:33 15,5 C 100 % 1015,4 hPa 0,0 l/m 0,0 km/h (0 Bft) S 180 15,5 C 15,5 C 0,0 km/h (0 Bft)
01.08.2021 08:28 15,5 C 100 % 1015,4 hPa 0,0 l/m 0,0 km/h (0 Bft) S 180 15,5 C 15,5 C 0,0 km/h (0 Bft)
01.08.2021 08:23 15,4 C 100 % 1015,4 hPa 0,0 l/m 0,0 km/h (0 Bft) SW 225 15,4 C 15,4 C 0,0 km/h (0 Bft)
01.08.2021 08:18 15,4 C 100 % 1015,4 hPa 0,0 l/m 0,0 km/h (0 Bft) S 180 15,4 C 15,4 C 0,0 km/h (0 Bft)
01.08.2021 08:13 15,3 C 100 % 1015,5 hPa 0,0 l/m 0,0 km/h (0 Bft) SW 225 15,3 C 15,3 C 0,0 km/h (0 Bft)
01.08.2021 08:08 15,3 C 100 % 1015,5 hPa 0,0 l/m 0,0 km/h (0 Bft) O 90 15,3 C 15,3 C 0,0 km/h (0 Bft)
01.08.2021 08:03 15,3 C 100 % 1015,5 hPa 0,0 l/m 0,0 km/h (0 Bft) W 270 15,3 C 15,3 C 0,0 km/h (0 Bft)
01.08.2021 07:58 15,3 C 100 % 1015,6 hPa 0,0 l/m 0,0 km/h (0 Bft) SW 225 15,3 C 15,3 C 0,0 km/h (0 Bft)
01.08.2021 07:53 15,3 C 100 % 1015,4 hPa 0,0 l/m 0,0 km/h (0 Bft) SW 225 15,3 C 15,3 C 0,0 km/h (0 Bft)
01.08.2021 07:48 15,3 C 100 % 1015,5 hPa 0,0 l/m 0,0 km/h (0 Bft) SW 225 15,3 C 15,3 C 0,0 km/h (0 Bft)
01.08.2021 07:43 15,3 C 100 % 1015,6 hPa 0,0 l/m 0,0 km/h (0 Bft) S-SW 202 15,3 C 15,3 C 0,0 km/h (0 Bft)
01.08.2021 07:38 15,3 C 100 % 1015,6 hPa 0,0 l/m 0,0 km/h (0 Bft) SW 225 15,3 C 15,3 C 0,0 km/h (0 Bft)
01.08.2021 07:33 15,2 C 100 % 1015,7 hPa 0,0 l/m 0,0 km/h (0 Bft) SO 135 15,2 C 15,2 C 0,0 km/h (0 Bft)
01.08.2021 07:28 15,2 C 100 % 1015,6 hPa 0,0 l/m 0,0 km/h (0 Bft) SW 225 15,2 C 15,2 C 0,0 km/h (0 Bft)
01.08.2021 07:23 15,2 C 100 % 1015,6 hPa 0,0 l/m 0,0 km/h (0 Bft) SW 225 15,2 C 15,2 C 0,0 km/h (0 Bft)
01.08.2021 07:18 15,2 C 100 % 1015,6 hPa 0,0 l/m 0,0 km/h (0 Bft) SW 225 15,2 C 15,2 C 0,0 km/h (0 Bft)
01.08.2021 07:13 15,2 C 100 % 1015,5 hPa 0,0 l/m 0,0 km/h (0 Bft) S 180 15,2 C 15,2 C 0,0 km/h (0 Bft)
01.08.2021 07:08 15,2 C 100 % 1015,4 hPa 0,0 l/m 0,0 km/h (0 Bft) SW 225 15,2 C 15,2 C 0,0 km/h (0 Bft)
01.08.2021 07:03 15,2 C 100 % 1015,4 hPa 0,0 l/m 0,0 km/h (0 Bft) S 180 15,2 C 15,2 C 0,0 km/h (0 Bft)
01.08.2021 06:58 15,2 C 100 % 1015,3 hPa 0,0 l/m 0,0 km/h (0 Bft) S 180 15,2 C 15,2 C 0,0 km/h (0 Bft)
01.08.2021 06:53 15,2 C 100 % 1015,4 hPa 0,0 l/m 0,0 km/h (0 Bft) S 180 15,2 C 15,2 C 0,0 km/h (0 Bft)
01.08.2021 06:48 15,2 C 100 % 1015,2 hPa 0,0 l/m 0,0 km/h (0 Bft) SW 225 15,2 C 15,2 C 0,0 km/h (0 Bft)
01.08.2021 06:43 15,2 C 100 % 1015,2 hPa 0,0 l/m 0,0 km/h (0 Bft) S 180 15,2 C 15,2 C 0,0 km/h (0 Bft)
01.08.2021 06:38 15,2 C 100 % 1015,1 hPa 0,0 l/m 0,0 km/h (0 Bft) W 270 15,2 C 15,2 C 0,0 km/h (0 Bft)
01.08.2021 06:33 15,2 C 100 % 1015,1 hPa 0,3 l/m 0,0 km/h (0 Bft) O-SO 112 15,2 C 15,2 C 0,0 km/h (0 Bft)
01.08.2021 06:28 15,2 C 100 % 1015,0 hPa 0,0 l/m 0,0 km/h (0 Bft) S 180 15,2 C 15,2 C 0,0 km/h (0 Bft)
01.08.2021 06:23 15,2 C 99 % 1014,9 hPa 0,0 l/m 0,0 km/h (0 Bft) NW 315 15,0 C 15,2 C 0,0 km/h (0 Bft)
01.08.2021 06:18 15,2 C 99 % 1015,2 hPa 0,0 l/m 0,0 km/h (0 Bft) W 270 15,0 C 15,2 C 0,0 km/h (0 Bft)
01.08.2021 06:13 15,2 C 99 % 1014,9 hPa 0,0 l/m 0,0 km/h (0 Bft) S 180 15,0 C 15,2 C 0,0 km/h (0 Bft)
01.08.2021 06:08 15,2 C 99 % 1014,9 hPa 0,0 l/m 0,0 km/h (0 Bft) SW 225 15,0 C 15,2 C 0,0 km/h (0 Bft)
01.08.2021 06:03 15,2 C 99 % 1014,6 hPa 0,0 l/m 0,0 km/h (0 Bft) W 270 15,0 C 15,2 C 0,0 km/h (0 Bft)
01.08.2021 05:58 15,2 C 99 % 1014,7 hPa 0,0 l/m 0,0 km/h (0 Bft) SW 225 15,0 C 15,2 C 0,0 km/h (0 Bft)
01.08.2021 05:53 15,2 C 99 % 1014,9 hPa 0,0 l/m 0,0 km/h (0 Bft) SW 225 15,0 C 15,2 C 0,0 km/h (0 Bft)
01.08.2021 05:48 15,2 C 99 % 1014,9 hPa 0,0 l/m 0,0 km/h (0 Bft) SW 225 15,0 C 15,2 C 0,0 km/h (0 Bft)
01.08.2021 05:43 15,2 C 99 % 1014,7 hPa 0,0 l/m 0,0 km/h (0 Bft) SW 225 15,0 C 15,2 C 0,0 km/h (0 Bft)
01.08.2021 05:38 15,2 C 99 % 1014,6 hPa 0,0 l/m 0,0 km/h (0 Bft) S 180 15,0 C 15,2 C 0,0 km/h (0 Bft)
01.08.2021 05:33 15,2 C 98 % 1014,5 hPa 0,0 l/m 0,0 km/h (0 Bft) SW 225 14,9 C 15,2 C 0,0 km/h (0 Bft)
01.08.2021 05:28 15,2 C 98 % 1014,6 hPa 0,0 l/m 0,0 km/h (0 Bft) S 180 14,9 C 15,2 C 0,0 km/h (0 Bft)
01.08.2021 05:23 15,2 C 98 % 1014,6 hPa 0,0 l/m 0,0 km/h (0 Bft) W 270 14,9 C 15,2 C 0,0 km/h (0 Bft)
01.08.2021 05:18 15,2 C 98 % 1014,4 hPa 0,0 l/m 0,0 km/h (0 Bft) S 180 14,9 C 15,2 C 0,0 km/h (0 Bft)
01.08.2021 05:13 15,2 C 98 % 1014,6 hPa 0,0 l/m 0,0 km/h (0 Bft) W 270 14,9 C 15,2 C 0,0 km/h (0 Bft)
01.08.2021 05:08 15,2 C 98 % 1014,6 hPa 0,0 l/m 0,0 km/h (0 Bft) S 180 14,9 C 15,2 C 0,0 km/h (0 Bft)
01.08.2021 05:03 15,2 C 98 % 1014,6 hPa 0,0 l/m 0,0 km/h (0 Bft) SW 225 14,9 C 15,2 C 0,0 km/h (0 Bft)
01.08.2021 04:58 15,1 C 98 % 1014,5 hPa 0,0 l/m 0,0 km/h (0 Bft) S-SW 202 14,8 C 15,1 C 0,0 km/h (0 Bft)
01.08.2021 04:53 15,1 C 98 % 1014,5 hPa 0,0 l/m 0,0 km/h (0 Bft) SW 225 14,8 C 15,1 C 0,0 km/h (0 Bft)
01.08.2021 04:48 15,1 C 98 % 1014,6 hPa 0,0 l/m 0,0 km/h (0 Bft) SO 135 14,8 C 15,1 C 0,0 km/h (0 Bft)
01.08.2021 04:43 15,1 C 98 % 1014,5 hPa 0,0 l/m 0,0 km/h (0 Bft) S-SW 202 14,8 C 15,1 C 0,0 km/h (0 Bft)
01.08.2021 04:38 15,1 C 98 % 1014,5 hPa 0,0 l/m 0,0 km/h (0 Bft) SW 225 14,8 C 15,1 C 0,0 km/h (0 Bft)
01.08.2021 04:33 15,1 C 98 % 1014,5 hPa 0,0 l/m 0,0 km/h (0 Bft) SW 225 14,8 C 15,1 C 0,0 km/h (0 Bft)
01.08.2021 04:28 15,1 C 98 % 1014,6 hPa 0,0 l/m 0,0 km/h (0 Bft) SW 225 14,8 C 15,1 C 0,0 km/h (0 Bft)
01.08.2021 04:23 15,1 C 98 % 1014,7 hPa 0,0 l/m 0,0 km/h (0 Bft) S 180 14,8 C 15,1 C 0,0 km/h (0 Bft)
01.08.2021 04:18 15,1 C 98 % 1014,7 hPa 0,0 l/m 0,0 km/h (0 Bft) SW 225 14,8 C 15,1 C 0,0 km/h (0 Bft)
01.08.2021 04:13 15,1 C 99 % 1014,6 hPa 0,0 l/m 0,0 km/h (0 Bft) SW 225 14,9 C 15,1 C 0,0 km/h (0 Bft)
01.08.2021 04:08 15,1 C 99 % 1014,6 hPa 0,0 l/m 0,0 km/h (0 Bft) S 180 14,9 C 15,1 C 0,0 km/h (0 Bft)
01.08.2021 04:03 15,1 C 99 % 1014,6 hPa 0,0 l/m 0,0 km/h (0 Bft) W 270 14,9 C 15,1 C 0,0 km/h (0 Bft)
01.08.2021 03:58 15,1 C 99 % 1014,8 hPa 0,0 l/m 0,0 km/h (0 Bft) W-SW 248 14,9 C 15,1 C 0,0 km/h (0 Bft)
01.08.2021 03:53 15,1 C 99 % 1014,8 hPa 0,0 l/m 0,0 km/h (0 Bft) S 180 14,9 C 15,1 C 0,0 km/h (0 Bft)
01.08.2021 03:48 15,1 C 99 % 1014,8 hPa 0,0 l/m 0,0 km/h (0 Bft) S-SW 202 14,9 C 15,1 C 0,0 km/h (0 Bft)
01.08.2021 03:43 15,2 C 99 % 1014,5 hPa 0,0 l/m 0,0 km/h (0 Bft) S 180 15,0 C 15,2 C 0,0 km/h (0 Bft)
01.08.2021 03:38 15,2 C 99 % 1014,8 hPa 0,0 l/m 0,0 km/h (0 Bft) S 180 15,0 C 15,2 C 0,0 km/h (0 Bft)
01.08.2021 03:33 15,2 C 99 % 1014,7 hPa 0,0 l/m 0,0 km/h (0 Bft) SW 225 15,0 C 15,2 C 0,0 km/h (0 Bft)
01.08.2021 03:28 15,2 C 99 % 1014,6 hPa 0,0 l/m 0,0 km/h (0 Bft) SW 225 15,0 C 15,2 C 0,0 km/h (0 Bft)
01.08.2021 03:23 15,2 C 99 % 1014,6 hPa 0,0 l/m 0,0 km/h (0 Bft) SO 135 15,0 C 15,2 C 0,0 km/h (0 Bft)
01.08.2021 03:18 15,2 C 99 % 1014,7 hPa 0,0 l/m 0,0 km/h (0 Bft) SW 225 15,0 C 15,2 C 0,0 km/h (0 Bft)
01.08.2021 03:13 15,3 C 99 % 1014,8 hPa 0,0 l/m 0,0 km/h (0 Bft) W 270 15,1 C 15,3 C 0,0 km/h (0 Bft)
01.08.2021 03:08 15,3 C 99 % 1015,0 hPa 0,0 l/m 0,0 km/h (0 Bft) SW 225 15,1 C 15,3 C 0,0 km/h (0 Bft)
01.08.2021 03:03 15,3 C 99 % 1015,0 hPa 0,0 l/m 0,0 km/h (0 Bft) SW 225 15,1 C 15,3 C 0,0 km/h (0 Bft)
01.08.2021 02:58 15,3 C 99 % 1015,0 hPa 0,0 l/m 0,0 km/h (0 Bft) W 270 15,1 C 15,3 C 0,0 km/h (0 Bft)
01.08.2021 02:53 15,3 C 100 % 1015,0 hPa 0,0 l/m 0,0 km/h (0 Bft) SW 225 15,3 C 15,3 C 0,0 km/h (0 Bft)
01.08.2021 02:48 15,3 C 100 % 1014,7 hPa 0,0 l/m 0,0 km/h (0 Bft) SW 225 15,3 C 15,3 C 0,0 km/h (0 Bft)
01.08.2021 02:43 15,4 C 100 % 1014,8 hPa 0,0 l/m 0,0 km/h (0 Bft) SW 225 15,4 C 15,4 C 0,0 km/h (0 Bft)
01.08.2021 02:38 15,4 C 100 % 1014,8 hPa 0,0 l/m 0,0 km/h (0 Bft) SW 225 15,4 C 15,4 C 0,0 km/h (0 Bft)
01.08.2021 02:33 15,4 C 100 % 1014,6 hPa 0,0 l/m 0,0 km/h (0 Bft) SW 225 15,4 C 15,4 C 0,0 km/h (0 Bft)
01.08.2021 02:28 15,4 C 100 % 1014,9 hPa 0,3 l/m 0,0 km/h (0 Bft) SW 225 15,4 C 15,4 C 0,0 km/h (0 Bft)
01.08.2021 02:23 15,4 C 100 % 1015,0 hPa 0,0 l/m 0,0 km/h (0 Bft) S 180 15,4 C 15,4 C 0,0 km/h (0 Bft)
01.08.2021 02:18 15,4 C 100 % 1014,9 hPa 0,0 l/m 0,0 km/h (0 Bft) W 270 15,4 C 15,4 C 0,0 km/h (0 Bft)
01.08.2021 02:13 15,5 C 100 % 1014,9 hPa 0,0 l/m 0,0 km/h (0 Bft) S 180 15,5 C 15,5 C 0,0 km/h (0 Bft)
01.08.2021 02:08 15,5 C 100 % 1014,8 hPa 0,0 l/m 0,0 km/h (0 Bft) SW 225 15,5 C 15,5 C 0,0 km/h (0 Bft)
01.08.2021 02:03 15,5 C 100 % 1015,1 hPa 0,0 l/m 0,0 km/h (0 Bft) S-SW 202 15,5 C 15,5 C 0,0 km/h (0 Bft)
01.08.2021 01:58 15,5 C 100 % 1015,1 hPa 0,0 l/m 0,0 km/h (0 Bft) S 180 15,5 C 15,5 C 0,0 km/h (0 Bft)
01.08.2021 01:53 15,5 C 99 % 1015,1 hPa 0,0 l/m 0,0 km/h (0 Bft) S 180 15,3 C 15,5 C 0,0 km/h (0 Bft)
01.08.2021 01:48 15,5 C 99 % 1015,2 hPa 0,0 l/m 0,0 km/h (0 Bft) S 180 15,3 C 15,5 C 0,0 km/h (0 Bft)
01.08.2021 01:43 15,5 C 99 % 1015,0 hPa 0,0 l/m 0,0 km/h (0 Bft) S 180 15,3 C 15,5 C 0,0 km/h (0 Bft)
01.08.2021 01:38 15,5 C 99 % 1015,2 hPa 0,0 l/m 0,0 km/h (0 Bft) W 270 15,3 C 15,5 C 0,0 km/h (0 Bft)
01.08.2021 01:33 15,5 C 99 % 1014,9 hPa 0,0 l/m 0,0 km/h (0 Bft) SW 225 15,3 C 15,5 C 0,0 km/h (0 Bft)
01.08.2021 01:28 15,5 C 99 % 1014,9 hPa 0,0 l/m 0,0 km/h (0 Bft) SW 225 15,3 C 15,5 C 0,0 km/h (0 Bft)
01.08.2021 01:23 15,5 C 99 % 1015,1 hPa 0,0 l/m 0,0 km/h (0 Bft) S 180 15,3 C 15,5 C 0,0 km/h (0 Bft)
01.08.2021 01:18 15,5 C 99 % 1015,0 hPa 0,0 l/m 0,0 km/h (0 Bft) S 180 15,3 C 15,5 C 0,0 km/h (0 Bft)
01.08.2021 01:13 15,5 C 99 % 1015,0 hPa 0,0 l/m 0,0 km/h (0 Bft) S 180 15,3 C 15,5 C 0,0 km/h (0 Bft)
01.08.2021 01:08 15,6 C 99 % 1014,9 hPa 0,0 l/m 0,0 km/h (0 Bft) S 180 15,4 C 15,6 C 0,0 km/h (0 Bft)
01.08.2021 01:03 15,6 C 99 % 1015,2 hPa 0,0 l/m 0,0 km/h (0 Bft) W-SW 248 15,4 C 15,6 C 0,0 km/h (0 Bft)
01.08.2021 00:58 15,6 C 99 % 1015,0 hPa 0,0 l/m 0,0 km/h (0 Bft) W 270 15,4 C 15,6 C 0,0 km/h (0 Bft)
01.08.2021 00:53 15,6 C 99 % 1015,0 hPa 0,0 l/m 0,0 km/h (0 Bft) SO 135 15,4 C 15,6 C 0,0 km/h (0 Bft)
01.08.2021 00:48 15,6 C 99 % 1015,1 hPa 0,0 l/m 0,0 km/h (0 Bft) W 270 15,4 C 15,6 C 0,0 km/h (0 Bft)
01.08.2021 00:43 15,6 C 99 % 1015,1 hPa 0,0 l/m 0,0 km/h (0 Bft) W 270 15,4 C 15,6 C 0,0 km/h (0 Bft)
01.08.2021 00:38 15,6 C 99 % 1015,0 hPa 0,0 l/m 0,0 km/h (0 Bft) S 180 15,4 C 15,6 C 0,0 km/h (0 Bft)
01.08.2021 00:33 15,6 C 99 % 1015,0 hPa 0,0 l/m 0,0 km/h (0 Bft) S 180 15,4 C 15,6 C 0,0 km/h (0 Bft)
01.08.2021 00:28 15,7 C 99 % 1014,9 hPa 0,0 l/m 0,0 km/h (0 Bft) W 270 15,5 C 15,7 C 0,0 km/h (0 Bft)
01.08.2021 00:23 15,6 C 99 % 1014,9 hPa 0,0 l/m 0,0 km/h (0 Bft) SO 135 15,4 C 15,6 C 0,0 km/h (0 Bft)
01.08.2021 00:18 15,7 C 99 % 1015,0 hPa 0,0 l/m 0,0 km/h (0 Bft) W 270 15,5 C 15,7 C 0,0 km/h (0 Bft)
01.08.2021 00:13 15,7 C 99 % 1014,9 hPa 0,0 l/m 0,0 km/h (0 Bft) NW 315 15,5 C 15,7 C 0,0 km/h (0 Bft)
01.08.2021 00:08 15,6 C 98 % 1015,2 hPa 0,0 l/m 0,0 km/h (0 Bft) S 180 15,3 C 15,6 C 0,0 km/h (0 Bft)
01.08.2021 00:03 15,6 C 98 % 1015,0 hPa 0,0 l/m 0,0 km/h (0 Bft) S 180 15,3 C 15,6 C 0,0 km/h (0 Bft)
31.07.2021 23:58 15,6 C 98 % 1015,0 hPa 0,0 l/m 0,0 km/h (0 Bft) SW 225 15,3 C 15,6 C 0,0 km/h (0 Bft)
31.07.2021 23:53 15,6 C 98 % 1014,9 hPa 0,3 l/m 0,0 km/h (0 Bft) - - 0 15,3 C 15,6 C 0,0 km/h (0 Bft)
31.07.2021 23:48 15,6 C 98 % 1015,0 hPa 0,0 l/m 0,0 km/h (0 Bft) S 180 15,3 C 15,6 C 0,0 km/h (0 Bft)
31.07.2021 23:43 15,6 C 98 % 1015,0 hPa 0,0 l/m 0,0 km/h (0 Bft) SW 225 15,3 C 15,6 C 0,0 km/h (0 Bft)
31.07.2021 23:38 15,6 C 98 % 1015,1 hPa 0,0 l/m 0,0 km/h (0 Bft) S 180 15,3 C 15,6 C 0,0 km/h (0 Bft)
31.07.2021 23:33 15,5 C 98 % 1014,9 hPa 0,0 l/m 0,0 km/h (0 Bft) W-SW 248 15,2 C 15,5 C 0,0 km/h (0 Bft)
31.07.2021 23:28 15,5 C 98 % 1014,7 hPa 0,0 l/m 0,0 km/h (0 Bft) SW 225 15,2 C 15,5 C 0,0 km/h (0 Bft)
31.07.2021 23:23 15,5 C 98 % 1014,7 hPa 0,0 l/m 0,0 km/h (0 Bft) SW 225 15,2 C 15,5 C 0,0 km/h (0 Bft)
31.07.2021 23:18 15,5 C 98 % 1014,8 hPa 0,0 l/m 0,0 km/h (0 Bft) S 180 15,2 C 15,5 C 0,0 km/h (0 Bft)
31.07.2021 23:13 15,5 C 97 % 1014,5 hPa 0,0 l/m 0,0 km/h (0 Bft) SW 225 15,0 C 15,5 C 0,0 km/h (0 Bft)
31.07.2021 23:08 15,5 C 97 % 1014,8 hPa 0,0 l/m 0,0 km/h (0 Bft) SW 225 15,0 C 15,5 C 0,0 km/h (0 Bft)
31.07.2021 23:03 15,4 C 97 % 1014,5 hPa 0,0 l/m 0,0 km/h (0 Bft) N-NW 338 14,9 C 15,4 C 0,0 km/h (0 Bft)
31.07.2021 22:58 15,4 C 97 % 1014,5 hPa 0,0 l/m 0,0 km/h (0 Bft) SW 225 14,9 C 15,4 C 0,0 km/h (0 Bft)
31.07.2021 22:53 15,4 C 97 % 1014,5 hPa 0,0 l/m 0,0 km/h (0 Bft) S 180 14,9 C 15,4 C 0,0 km/h (0 Bft)
31.07.2021 22:48 15,4 C 97 % 1014,4 hPa 0,0 l/m 0,0 km/h (0 Bft) S 180 14,9 C 15,4 C 0,0 km/h (0 Bft)
31.07.2021 22:43 15,4 C 97 % 1014,5 hPa 0,0 l/m 0,0 km/h (0 Bft) S 180 14,9 C 15,4 C 0,0 km/h (0 Bft)
31.07.2021 22:38 15,4 C 96 % 1014,3 hPa 0,0 l/m 0,0 km/h (0 Bft) S 180 14,8 C 15,4 C 0,0 km/h (0 Bft)
31.07.2021 22:33 15,4 C 96 % 1014,3 hPa 0,0 l/m 0,0 km/h (0 Bft) S 180 14,8 C 15,4 C 0,0 km/h (0 Bft)
31.07.2021 22:28 15,4 C 96 % 1014,4 hPa 0,0 l/m 0,0 km/h (0 Bft) S 180 14,8 C 15,4 C 0,0 km/h (0 Bft)
31.07.2021 22:23 15,4 C 96 % 1014,6 hPa 0,0 l/m 0,0 km/h (0 Bft) S 180 14,8 C 15,4 C 0,0 km/h (0 Bft)
31.07.2021 22:18 15,4 C 96 % 1014,1 hPa 0,0 l/m 0,0 km/h (0 Bft) S 180 14,8 C 15,4 C 0,0 km/h (0 Bft)
31.07.2021 22:13 15,5 C 96 % 1014,3 hPa 0,0 l/m 0,0 km/h (0 Bft) SW 225 14,9 C 15,5 C 0,0 km/h (0 Bft)
31.07.2021 22:08 15,6 C 96 % 1014,0 hPa 0,0 l/m 0,0 km/h (0 Bft) SW 225 15,0 C 15,6 C 0,0 km/h (0 Bft)
31.07.2021 22:03 15,6 C 96 % 1014,3 hPa 0,0 l/m 0,0 km/h (0 Bft) SW 225 15,0 C 15,6 C 0,0 km/h (0 Bft)
31.07.2021 21:58 15,6 C 96 % 1014,1 hPa 0,0 l/m 0,0 km/h (0 Bft) SW 225 15,0 C 15,6 C 0,0 km/h (0 Bft)
31.07.2021 21:53 15,7 C 96 % 1014,0 hPa 0,0 l/m 0,0 km/h (0 Bft) SW 225 15,1 C 15,7 C 0,0 km/h (0 Bft)
31.07.2021 21:48 15,8 C 96 % 1014,0 hPa 0,0 l/m 0,0 km/h (0 Bft) SW 225 15,2 C 15,8 C 0,0 km/h (0 Bft)
31.07.2021 21:43 15,8 C 96 % 1013,9 hPa 0,0 l/m 0,0 km/h (0 Bft) SW 225 15,2 C 15,8 C 0,0 km/h (0 Bft)
31.07.2021 21:38 15,9 C 96 % 1013,8 hPa 0,0 l/m 0,0 km/h (0 Bft) SW 225 15,3 C 15,9 C 0,0 km/h (0 Bft)
31.07.2021 21:33 16,0 C 96 % 1013,6 hPa 0,0 l/m 0,0 km/h (0 Bft) SW 225 15,4 C 16,0 C 0,0 km/h (0 Bft)
31.07.2021 21:28 16,0 C 96 % 1013,8 hPa 0,0 l/m 0,0 km/h (0 Bft) SW 225 15,4 C 16,0 C 0,0 km/h (0 Bft)
31.07.2021 21:23 16,1 C 96 % 1013,6 hPa 0,0 l/m 0,0 km/h (0 Bft) SW 225 15,5 C 16,1 C 0,0 km/h (0 Bft)
31.07.2021 21:18 16,2 C 96 % 1013,7 hPa 0,0 l/m 0,0 km/h (0 Bft) SW 225 15,6 C 16,2 C 0,0 km/h (0 Bft)
31.07.2021 21:13 16,3 C 97 % 1013,7 hPa 0,0 l/m 0,0 km/h (0 Bft) SW 225 15,8 C 16,3 C 0,0 km/h (0 Bft)
31.07.2021 21:08 16,3 C 97 % 1013,8 hPa 0,0 l/m 0,0 km/h (0 Bft) S 180 15,8 C 16,3 C 0,0 km/h (0 Bft)
31.07.2021 21:03 16,4 C 97 % 1013,6 hPa 0,0 l/m 0,0 km/h (0 Bft) S 180 15,9 C 16,4 C 0,0 km/h (0 Bft)
31.07.2021 20:58 16,4 C 97 % 1013,5 hPa 0,0 l/m 0,0 km/h (0 Bft) S 180 15,9 C 16,4 C 0,0 km/h (0 Bft)
31.07.2021 20:53 16,5 C 97 % 1013,5 hPa 0,3 l/m 0,0 km/h (0 Bft) W 270 16,0 C 16,5 C 0,0 km/h (0 Bft)
31.07.2021 20:48 16,5 C 97 % 1013,5 hPa 0,3 l/m 0,0 km/h (0 Bft) S 180 16,0 C 16,5 C 0,0 km/h (0 Bft)
31.07.2021 20:43 16,5 C 97 % 1013,6 hPa 0,3 l/m 0,0 km/h (0 Bft) SW 225 16,0 C 16,5 C 0,0 km/h (0 Bft)
31.07.2021 20:38 16,5 C 97 % 1013,3 hPa 0,0 l/m 0,0 km/h (0 Bft) SW 225 16,0 C 16,5 C 0,0 km/h (0 Bft)
31.07.2021 20:33 16,6 C 97 % 1013,4 hPa 0,0 l/m 0,0 km/h (0 Bft) S 180 16,1 C 16,6 C 0,0 km/h (0 Bft)
31.07.2021 20:28 16,6 C 97 % 1012,9 hPa 0,0 l/m 0,0 km/h (0 Bft) SW 225 16,1 C 16,6 C 0,0 km/h (0 Bft)
31.07.2021 20:23 16,7 C 97 % 1013,2 hPa 0,0 l/m 0,0 km/h (0 Bft) SW 225 16,2 C 16,7 C 0,0 km/h (0 Bft)
31.07.2021 20:18 16,7 C 98 % 1013,3 hPa 0,0 l/m 0,0 km/h (0 Bft) SW 225 16,4 C 16,7 C 0,0 km/h (0 Bft)
31.07.2021 20:13 16,7 C 98 % 1013,3 hPa 0,0 l/m 0,0 km/h (0 Bft) SW 225 16,4 C 16,7 C 0,0 km/h (0 Bft)
31.07.2021 20:08 16,7 C 97 % 1013,2 hPa 0,0 l/m 0,0 km/h (0 Bft) SW 225 16,2 C 16,7 C 0,0 km/h (0 Bft)
31.07.2021 20:03 16,6 C 97 % 1013,0 hPa 0,0 l/m 0,0 km/h (0 Bft) W 270 16,1 C 16,6 C 0,0 km/h (0 Bft)
_ Min-Zeit 03:48 13:53 17:38 - 20:03 - - 14:38 03:48 20:03
Minimum _ 15,1 C 62 % 1001,8 hPa - 0,0 km/h (0 Bft) - - 13,4 C 15,1 C 0,0 km/h (0 Bft)
_ Max-Zeit 13:53 01:58 08:58 14:28 20:03 - - 17:13 13:53 20:03
Maximum _ 23,1 C 100 % 1015,8 hPa 1,2 l/m 0,0 km/h
W (0 Bft)
- - 16,5 C 23,1 C 0,0 km/h
W (0 Bft)
Durchschnitt _ 16,6 C 93 % 1014,6 hPa #8,7 l/m 0,0 km/h (0 Bft) - - - 15,3 C 16,6 C 0,0 km/h (0 Bft)
copyright C.Bartels